sensor_id;sensor_type;location;lat;lon;timestamp;P1;durP1;ratioP1;P2;durP2;ratioP2
836;SDS011;400;53.550;9.932;2023-06-26T00:01:31;11.97;;;11.17;;
836;SDS011;400;53.550;9.932;2023-06-26T00:03:58;13.30;;;12.40;;
836;SDS011;400;53.550;9.932;2023-06-26T00:06:25;12.10;;;11.23;;
836;SDS011;400;53.550;9.932;2023-06-26T00:08:52;12.80;;;11.90;;
836;SDS011;400;53.550;9.932;2023-06-26T00:11:19;12.33;;;11.60;;
836;SDS011;400;53.550;9.932;2023-06-26T00:13:46;12.90;;;11.90;;
836;SDS011;400;53.550;9.932;2023-06-26T00:16:14;12.30;;;11.50;;
836;SDS011;400;53.550;9.932;2023-06-26T00:18:41;12.97;;;12.07;;
836;SDS011;400;53.550;9.932;2023-06-26T00:21:09;12.10;;;11.17;;
836;SDS011;400;53.550;9.932;2023-06-26T00:23:35;13.70;;;12.60;;
836;SDS011;400;53.550;9.932;2023-06-26T00:26:02;11.27;;;10.57;;
836;SDS011;400;53.550;9.932;2023-06-26T00:28:30;12.20;;;11.20;;
836;SDS011;400;53.550;9.932;2023-06-26T00:30:56;13.53;;;12.50;;
836;SDS011;400;53.550;9.932;2023-06-26T00:33:25;13.30;;;12.40;;
836;SDS011;400;53.550;9.932;2023-06-26T00:35:52;12.33;;;11.50;;
836;SDS011;400;53.550;9.932;2023-06-26T00:38:19;12.83;;;12.00;;
836;SDS011;400;53.550;9.932;2023-06-26T00:40:46;12.60;;;11.70;;
836;SDS011;400;53.550;9.932;2023-06-26T00:43:13;12.57;;;11.63;;
836;SDS011;400;53.550;9.932;2023-06-26T00:45:40;12.50;;;11.60;;
836;SDS011;400;53.550;9.932;2023-06-26T00:48:07;13.80;;;12.90;;
836;SDS011;400;53.550;9.932;2023-06-26T00:50:39;12.60;;;11.87;;
836;SDS011;400;53.550;9.932;2023-06-26T00:53:06;12.23;;;11.43;;
836;SDS011;400;53.550;9.932;2023-06-26T00:55:35;13.50;;;12.60;;
836;SDS011;400;53.550;9.932;2023-06-26T00:58:02;12.87;;;11.87;;
836;SDS011;400;53.550;9.932;2023-06-26T01:00:29;12.00;;;11.20;;
836;SDS011;400;53.550;9.932;2023-06-26T01:02:56;13.00;;;12.20;;
836;SDS011;400;53.550;9.932;2023-06-26T01:05:24;12.80;;;12.07;;
836;SDS011;400;53.550;9.932;2023-06-26T01:07:53;13.47;;;12.57;;
836;SDS011;400;53.550;9.932;2023-06-26T01:10:21;12.97;;;12.17;;
836;SDS011;400;53.550;9.932;2023-06-26T01:12:48;13.13;;;12.23;;
836;SDS011;400;53.550;9.932;2023-06-26T01:15:15;12.93;;;11.97;;
836;SDS011;400;53.550;9.932;2023-06-26T01:17:42;13.60;;;12.57;;
836;SDS011;400;53.550;9.932;2023-06-26T01:20:12;13.40;;;12.60;;
836;SDS011;400;53.550;9.932;2023-06-26T01:22:43;13.83;;;12.93;;
836;SDS011;400;53.550;9.932;2023-06-26T01:25:17;13.30;;;12.50;;
836;SDS011;400;53.550;9.932;2023-06-26T01:28:05;13.97;;;13.07;;
836;SDS011;400;53.550;9.932;2023-06-26T01:30:33;12.93;;;12.13;;
836;SDS011;400;53.550;9.932;2023-06-26T01:33:02;13.87;;;12.97;;
836;SDS011;400;53.550;9.932;2023-06-26T01:35:30;12.90;;;12.20;;
836;SDS011;400;53.550;9.932;2023-06-26T01:38:10;13.20;;;12.30;;
836;SDS011;400;53.550;9.932;2023-06-26T01:40:38;13.90;;;12.90;;
836;SDS011;400;53.550;9.932;2023-06-26T01:43:08;12.67;;;11.90;;
836;SDS011;400;53.550;9.932;2023-06-26T01:45:51;14.23;;;13.33;;
836;SDS011;400;53.550;9.932;2023-06-26T01:48:30;12.40;;;11.63;;
836;SDS011;400;53.550;9.932;2023-06-26T01:51:01;12.20;;;11.30;;
836;SDS011;400;53.550;9.932;2023-06-26T01:53:30;13.80;;;12.90;;
836;SDS011;400;53.550;9.932;2023-06-26T01:56:04;12.77;;;11.87;;
836;SDS011;400;53.550;9.932;2023-06-26T01:58:36;12.53;;;11.63;;
836;SDS011;400;53.550;9.932;2023-06-26T02:01:06;13.33;;;12.40;;
836;SDS011;400;53.550;9.932;2023-06-26T02:03:33;12.37;;;11.50;;
836;SDS011;400;53.550;9.932;2023-06-26T02:06:00;12.43;;;11.63;;
836;SDS011;400;53.550;9.932;2023-06-26T02:08:27;12.53;;;11.77;;
836;SDS011;400;53.550;9.932;2023-06-26T02:10:54;13.70;;;12.80;;
836;SDS011;400;53.550;9.932;2023-06-26T02:13:21;11.90;;;11.20;;
836;SDS011;400;53.550;9.932;2023-06-26T02:15:49;12.60;;;11.80;;
836;SDS011;400;53.550;9.932;2023-06-26T02:18:16;12.80;;;12.00;;
836;SDS011;400;53.550;9.932;2023-06-26T02:20:43;13.40;;;12.50;;
836;SDS011;400;53.550;9.932;2023-06-26T02:23:10;11.93;;;11.13;;
836;SDS011;400;53.550;9.932;2023-06-26T02:25:38;12.00;;;11.10;;
836;SDS011;400;53.550;9.932;2023-06-26T02:28:04;11.93;;;11.23;;
836;SDS011;400;53.550;9.932;2023-06-26T02:30:31;12.57;;;11.73;;
836;SDS011;400;53.550;9.932;2023-06-26T02:33:00;13.00;;;12.10;;
836;SDS011;400;53.550;9.932;2023-06-26T02:35:27;11.65;;;10.70;;
836;SDS011;400;53.550;9.932;2023-06-26T02:37:54;12.70;;;11.90;;
836;SDS011;400;53.550;9.932;2023-06-26T02:40:20;12.30;;;11.50;;
836;SDS011;400;53.550;9.932;2023-06-26T02:42:47;12.53;;;11.73;;
836;SDS011;400;53.550;9.932;2023-06-26T02:45:14;12.50;;;11.70;;
836;SDS011;400;53.550;9.932;2023-06-26T02:47:41;12.87;;;12.00;;
836;SDS011;400;53.550;9.932;2023-06-26T02:50:10;13.53;;;12.60;;
836;SDS011;400;53.550;9.932;2023-06-26T02:52:42;13.63;;;12.63;;
836;SDS011;400;53.550;9.932;2023-06-26T02:55:09;13.30;;;12.40;;
836;SDS011;400;53.550;9.932;2023-06-26T02:57:36;14.20;;;12.80;;
836;SDS011;400;53.550;9.932;2023-06-26T10:36:30;9.20;;;8.40;;
836;SDS011;400;53.550;9.932;2023-06-26T10:44:08;6.80;;;6.30;;
836;SDS011;400;53.550;9.932;2023-06-26T10:46:49;7.25;;;6.65;;
836;SDS011;400;53.550;9.932;2023-06-26T10:49:18;7.20;;;6.70;;
836;SDS011;400;53.550;9.932;2023-06-26T15:55:27;2.50;;;1.90;;
836;SDS011;400;53.550;9.932;2023-06-26T17:14:48;2.90;;;2.00;;
836;SDS011;400;53.550;9.932;2023-06-26T17:17:16;6.40;;;2.20;;
836;SDS011;400;53.550;9.932;2023-06-26T17:19:46;2.50;;;2.10;;
836;SDS011;400;53.550;9.932;2023-06-26T17:22:12;3.13;;;2.60;;
836;SDS011;400;53.550;9.932;2023-06-26T17:24:41;2.70;;;2.10;;
836;SDS011;400;53.550;9.932;2023-06-26T17:27:08;2.87;;;2.23;;
836;SDS011;400;53.550;9.932;2023-06-26T17:29:36;2.77;;;2.20;;
836;SDS011;400;53.550;9.932;2023-06-26T17:32:05;3.80;;;2.13;;
836;SDS011;400;53.550;9.932;2023-06-26T17:34:33;3.10;;;2.60;;
836;SDS011;400;53.550;9.932;2023-06-26T17:37:00;2.80;;;2.10;;
836;SDS011;400;53.550;9.932;2023-06-26T17:39:27;2.50;;;2.30;;
836;SDS011;400;53.550;9.932;2023-06-26T17:41:56;2.30;;;1.80;;
836;SDS011;400;53.550;9.932;2023-06-26T17:44:24;3.20;;;2.43;;
836;SDS011;400;53.550;9.932;2023-06-26T17:46:53;5.33;;;3.70;;
836;SDS011;400;53.550;9.932;2023-06-26T17:49:20;5.37;;;4.30;;
836;SDS011;400;53.550;9.932;2023-06-26T17:51:49;5.10;;;3.73;;
836;SDS011;400;53.550;9.932;2023-06-26T17:54:19;4.60;;;2.90;;
836;SDS011;400;53.550;9.932;2023-06-26T17:56:47;4.30;;;3.10;;
836;SDS011;400;53.550;9.932;2023-06-26T17:59:19;4.37;;;3.07;;
836;SDS011;400;53.550;9.932;2023-06-26T18:01:48;7.47;;;3.37;;
836;SDS011;400;53.550;9.932;2023-06-26T18:04:20;3.53;;;1.93;;
836;SDS011;400;53.550;9.932;2023-06-26T18:06:48;4.37;;;2.53;;
836;SDS011;400;53.550;9.932;2023-06-26T18:09:19;4.23;;;2.37;;
836;SDS011;400;53.550;9.932;2023-06-26T18:11:46;6.60;;;2.20;;
836;SDS011;400;53.550;9.932;2023-06-26T18:14:13;4.37;;;2.23;;
836;SDS011;400;53.550;9.932;2023-06-26T18:16:42;4.87;;;2.53;;
836;SDS011;400;53.550;9.932;2023-06-26T18:19:09;6.00;;;2.50;;
836;SDS011;400;53.550;9.932;2023-06-26T18:21:36;4.53;;;2.40;;
836;SDS011;400;53.550;9.932;2023-06-26T18:24:03;6.40;;;2.30;;
836;SDS011;400;53.550;9.932;2023-06-26T18:26:31;3.07;;;1.80;;
836;SDS011;400;53.550;9.932;2023-06-26T18:28:59;3.97;;;2.00;;
836;SDS011;400;53.550;9.932;2023-06-26T18:31:28;3.30;;;2.20;;
836;SDS011;400;53.550;9.932;2023-06-26T18:33:56;5.10;;;2.50;;
836;SDS011;400;53.550;9.932;2023-06-26T18:36:23;4.73;;;2.73;;
836;SDS011;400;53.550;9.932;2023-06-26T18:38:51;2.70;;;2.00;;
836;SDS011;400;53.550;9.932;2023-06-26T18:41:18;4.43;;;2.10;;
836;SDS011;400;53.550;9.932;2023-06-26T18:43:46;4.43;;;1.60;;
836;SDS011;400;53.550;9.932;2023-06-26T18:46:13;3.30;;;1.97;;
836;SDS011;400;53.550;9.932;2023-06-26T18:48:40;2.50;;;2.30;;
836;SDS011;400;53.550;9.932;2023-06-26T18:51:09;3.83;;;2.33;;
836;SDS011;400;53.550;9.932;2023-06-26T18:53:36;5.50;;;2.10;;
836;SDS011;400;53.550;9.932;2023-06-26T18:56:07;5.90;;;2.57;;
836;SDS011;400;53.550;9.932;2023-06-26T18:58:38;5.37;;;2.80;;
836;SDS011;400;53.550;9.932;2023-06-26T19:01:07;8.20;;;2.90;;
836;SDS011;400;53.550;9.932;2023-06-26T19:03:36;4.60;;;2.10;;
836;SDS011;400;53.550;9.932;2023-06-26T19:06:05;3.37;;;2.97;;
836;SDS011;400;53.550;9.932;2023-06-26T19:08:36;4.90;;;2.03;;
836;SDS011;400;53.550;9.932;2023-06-26T19:11:03;2.73;;;2.37;;
836;SDS011;400;53.550;9.932;2023-06-26T19:13:29;2.10;;;1.90;;
836;SDS011;400;53.550;9.932;2023-06-26T19:15:56;4.70;;;2.50;;
836;SDS011;400;53.550;9.932;2023-06-26T19:18:24;2.40;;;2.07;;
836;SDS011;400;53.550;9.932;2023-06-26T19:20:51;8.73;;;3.43;;
836;SDS011;400;53.550;9.932;2023-06-26T19:23:18;5.43;;;2.30;;
836;SDS011;400;53.550;9.932;2023-06-26T19:25:46;5.53;;;2.80;;
836;SDS011;400;53.550;9.932;2023-06-26T19:28:13;5.40;;;2.80;;
836;SDS011;400;53.550;9.932;2023-06-26T19:30:40;4.60;;;2.50;;
836;SDS011;400;53.550;9.932;2023-06-26T19:33:07;7.80;;;3.10;;
836;SDS011;400;53.550;9.932;2023-06-26T19:35:34;8.00;;;3.23;;
836;SDS011;400;53.550;9.932;2023-06-26T19:38:00;4.23;;;2.90;;
836;SDS011;400;53.550;9.932;2023-06-26T19:40:30;7.10;;;3.20;;
836;SDS011;400;53.550;9.932;2023-06-26T19:43:00;6.60;;;2.80;;
836;SDS011;400;53.550;9.932;2023-06-26T19:45:27;5.27;;;2.70;;
836;SDS011;400;53.550;9.932;2023-06-26T19:47:53;4.37;;;2.77;;
836;SDS011;400;53.550;9.932;2023-06-26T19:50:20;5.80;;;3.07;;
836;SDS011;400;53.550;9.932;2023-06-26T19:52:47;8.13;;;2.87;;
836;SDS011;400;53.550;9.932;2023-06-26T19:55:14;5.57;;;3.00;;
836;SDS011;400;53.550;9.932;2023-06-26T19:57:41;9.57;;;2.83;;
836;SDS011;400;53.550;9.932;2023-06-26T20:00:10;3.67;;;2.50;;
836;SDS011;400;53.550;9.932;2023-06-26T20:02:38;6.00;;;2.67;;
836;SDS011;400;53.550;9.932;2023-06-26T20:05:05;9.90;;;3.53;;
836;SDS011;400;53.550;9.932;2023-06-26T20:07:33;4.40;;;3.10;;
836;SDS011;400;53.550;9.932;2023-06-26T20:10:01;6.10;;;3.70;;
836;SDS011;400;53.550;9.932;2023-06-26T20:12:31;5.83;;;3.10;;
836;SDS011;400;53.550;9.932;2023-06-26T20:15:02;6.80;;;3.43;;
836;SDS011;400;53.550;9.932;2023-06-26T20:17:33;6.37;;;3.67;;
836;SDS011;400;53.550;9.932;2023-06-26T20:20:01;7.17;;;3.20;;
836;SDS011;400;53.550;9.932;2023-06-26T20:22:31;6.93;;;3.33;;
836;SDS011;400;53.550;9.932;2023-06-26T20:24:58;8.03;;;3.60;;
836;SDS011;400;53.550;9.932;2023-06-26T20:27:25;6.73;;;3.77;;
836;SDS011;400;53.550;9.932;2023-06-26T20:29:52;8.33;;;3.77;;
836;SDS011;400;53.550;9.932;2023-06-26T20:32:19;8.87;;;3.87;;
836;SDS011;400;53.550;9.932;2023-06-26T20:34:51;4.97;;;3.33;;
836;SDS011;400;53.550;9.932;2023-06-26T20:37:26;5.57;;;3.57;;
836;SDS011;400;53.550;9.932;2023-06-26T20:39:55;7.60;;;3.60;;
836;SDS011;400;53.550;9.932;2023-06-26T20:42:24;7.93;;;3.87;;
836;SDS011;400;53.550;9.932;2023-06-26T20:44:52;6.60;;;3.57;;
836;SDS011;400;53.550;9.932;2023-06-26T20:47:22;7.83;;;3.33;;
836;SDS011;400;53.550;9.932;2023-06-26T20:49:57;8.60;;;3.27;;
836;SDS011;400;53.550;9.932;2023-06-26T20:52:25;5.50;;;3.90;;
836;SDS011;400;53.550;9.932;2023-06-26T20:54:54;8.27;;;3.23;;
836;SDS011;400;53.550;9.932;2023-06-26T20:57:21;6.20;;;2.90;;
836;SDS011;400;53.550;9.932;2023-06-26T20:59:48;8.47;;;3.87;;
836;SDS011;400;53.550;9.932;2023-06-26T21:02:15;6.90;;;3.73;;
836;SDS011;400;53.550;9.932;2023-06-26T21:04:42;8.57;;;4.40;;
836;SDS011;400;53.550;9.932;2023-06-26T21:07:10;9.30;;;3.67;;
836;SDS011;400;53.550;9.932;2023-06-26T21:09:37;5.67;;;3.40;;
836;SDS011;400;53.550;9.932;2023-06-26T21:12:04;5.03;;;3.17;;
836;SDS011;400;53.550;9.932;2023-06-26T21:14:32;6.17;;;4.30;;
836;SDS011;400;53.550;9.932;2023-06-26T21:16:59;4.47;;;2.87;;
836;SDS011;400;53.550;9.932;2023-06-26T21:19:26;7.10;;;4.03;;
836;SDS011;400;53.550;9.932;2023-06-26T21:21:53;6.20;;;3.47;;
836;SDS011;400;53.550;9.932;2023-06-26T21:24:21;11.30;;;4.00;;
836;SDS011;400;53.550;9.932;2023-06-26T21:26:48;7.53;;;3.70;;
836;SDS011;400;53.550;9.932;2023-06-26T21:29:14;6.90;;;3.30;;
836;SDS011;400;53.550;9.932;2023-06-26T21:31:41;5.83;;;3.10;;
836;SDS011;400;53.550;9.932;2023-06-26T21:34:08;5.13;;;3.07;;
836;SDS011;400;53.550;9.932;2023-06-26T21:36:36;7.57;;;3.77;;
836;SDS011;400;53.550;9.932;2023-06-26T21:39:03;5.10;;;2.90;;
836;SDS011;400;53.550;9.932;2023-06-26T21:41:32;9.03;;;3.27;;
836;SDS011;400;53.550;9.932;2023-06-26T21:43:59;3.80;;;3.03;;
836;SDS011;400;53.550;9.932;2023-06-26T21:46:26;5.53;;;2.80;;
836;SDS011;400;53.550;9.932;2023-06-26T21:48:53;5.77;;;2.93;;
836;SDS011;400;53.550;9.932;2023-06-26T21:51:21;9.00;;;3.70;;
836;SDS011;400;53.550;9.932;2023-06-26T21:53:48;6.60;;;2.77;;
836;SDS011;400;53.550;9.932;2023-06-26T21:56:18;7.07;;;3.33;;
836;SDS011;400;53.550;9.932;2023-06-26T21:58:46;8.23;;;4.73;;
836;SDS011;400;53.550;9.932;2023-06-26T22:01:16;9.80;;;3.47;;
836;SDS011;400;53.550;9.932;2023-06-26T22:03:44;6.47;;;3.33;;
836;SDS011;400;53.550;9.932;2023-06-26T22:06:11;4.23;;;2.67;;
836;SDS011;400;53.550;9.932;2023-06-26T22:08:39;6.30;;;3.03;;
836;SDS011;400;53.550;9.932;2023-06-26T22:11:07;4.90;;;2.70;;
836;SDS011;400;53.550;9.932;2023-06-26T22:13:34;5.90;;;2.80;;
836;SDS011;400;53.550;9.932;2023-06-26T22:16:02;7.80;;;3.40;;
836;SDS011;400;53.550;9.932;2023-06-26T22:18:29;7.70;;;3.17;;
836;SDS011;400;53.550;9.932;2023-06-26T22:20:56;4.57;;;2.83;;
836;SDS011;400;53.550;9.932;2023-06-26T22:23:23;6.80;;;2.73;;
836;SDS011;400;53.550;9.932;2023-06-26T22:25:50;7.30;;;2.70;;
836;SDS011;400;53.550;9.932;2023-06-26T22:28:17;5.90;;;3.30;;
836;SDS011;400;53.550;9.932;2023-06-26T22:30:44;5.60;;;2.10;;
836;SDS011;400;53.550;9.932;2023-06-26T22:33:13;5.90;;;2.83;;
836;SDS011;400;53.550;9.932;2023-06-26T22:35:40;9.43;;;3.30;;
836;SDS011;400;53.550;9.932;2023-06-26T22:38:07;5.53;;;3.20;;
836;SDS011;400;53.550;9.932;2023-06-26T22:40:34;8.20;;;3.23;;
836;SDS011;400;53.550;9.932;2023-06-26T22:43:01;9.80;;;4.70;;
836;SDS011;400;53.550;9.932;2023-06-26T22:45:33;7.63;;;2.97;;
836;SDS011;400;53.550;9.932;2023-06-26T22:48:04;5.50;;;2.80;;
836;SDS011;400;53.550;9.932;2023-06-26T22:50:32;5.10;;;2.67;;
836;SDS011;400;53.550;9.932;2023-06-26T22:52:59;6.47;;;3.03;;
836;SDS011;400;53.550;9.932;2023-06-26T22:55:26;7.13;;;2.83;;
836;SDS011;400;53.550;9.932;2023-06-26T22:57:55;15.90;;;4.70;;
836;SDS011;400;53.550;9.932;2023-06-26T23:00:23;10.63;;;3.60;;
836;SDS011;400;53.550;9.932;2023-06-26T23:02:51;6.20;;;2.60;;
836;SDS011;400;53.550;9.932;2023-06-26T23:05:23;7.33;;;3.00;;
836;SDS011;400;53.550;9.932;2023-06-26T23:07:52;8.80;;;2.87;;
836;SDS011;400;53.550;9.932;2023-06-26T23:10:19;11.13;;;3.40;;
836;SDS011;400;53.550;9.932;2023-06-26T23:12:46;4.87;;;2.73;;
836;SDS011;400;53.550;9.932;2023-06-26T23:15:13;5.90;;;3.37;;
836;SDS011;400;53.550;9.932;2023-06-26T23:17:42;6.63;;;2.80;;
836;SDS011;400;53.550;9.932;2023-06-26T23:20:10;9.43;;;3.20;;
836;SDS011;400;53.550;9.932;2023-06-26T23:22:37;6.03;;;3.07;;
836;SDS011;400;53.550;9.932;2023-06-26T23:25:07;9.87;;;2.77;;
836;SDS011;400;53.550;9.932;2023-06-26T23:27:35;5.30;;;2.53;;
836;SDS011;400;53.550;9.932;2023-06-26T23:30:06;10.87;;;3.20;;
836;SDS011;400;53.550;9.932;2023-06-26T23:32:34;9.97;;;3.50;;
836;SDS011;400;53.550;9.932;2023-06-26T23:35:01;8.37;;;3.33;;
836;SDS011;400;53.550;9.932;2023-06-26T23:37:29;9.77;;;3.03;;
836;SDS011;400;53.550;9.932;2023-06-26T23:39:59;12.40;;;2.93;;
836;SDS011;400;53.550;9.932;2023-06-26T23:42:27;5.07;;;2.63;;
836;SDS011;400;53.550;9.932;2023-06-26T23:44:54;8.13;;;3.20;;
836;SDS011;400;53.550;9.932;2023-06-26T23:47:21;8.13;;;4.20;;
836;SDS011;400;53.550;9.932;2023-06-26T23:49:48;19.70;;;15.93;;
836;SDS011;400;53.550;9.932;2023-06-26T23:52:14;33.47;;;24.07;;
836;SDS011;400;53.550;9.932;2023-06-26T23:54:41;65.37;;;53.00;;
836;SDS011;400;53.550;9.932;2023-06-26T23:57:08;96.90;;;76.93;;
836;SDS011;400;53.550;9.932;2023-06-26T23:59:37;71.77;;;59.90;;
